createdAt,value
2022-11-24T00:02:34.670Z,19.10
2022-11-24T00:05:38.728Z,20.20
2022-11-24T00:08:43.483Z,17.35
2022-11-24T00:11:46.183Z,16.67
2022-11-24T00:14:48.447Z,17.67
2022-11-24T00:17:50.816Z,16.52
2022-11-24T00:20:53.366Z,17.77
2022-11-24T00:23:56.263Z,17.95
2022-11-24T00:26:58.528Z,18.52
2022-11-24T00:30:00.809Z,16.43
2022-11-24T00:33:04.121Z,18.70
2022-11-24T00:36:06.567Z,18.10
2022-11-24T00:39:13.214Z,19.55
2022-11-24T00:42:15.472Z,19.27
2022-11-24T00:45:17.721Z,21.53
2022-11-24T00:48:20.019Z,18.27
2022-11-24T00:51:27.269Z,20.35
2022-11-24T00:54:29.538Z,22.33
2022-11-24T00:57:31.845Z,21.85
2022-11-24T01:00:34.186Z,23.80
2022-11-24T01:03:37.086Z,22.70
2022-11-24T01:06:39.500Z,23.20
2022-11-24T01:09:43.452Z,22.83
2022-11-24T01:12:45.732Z,23.80
2022-11-24T01:15:48.019Z,24.50
2022-11-24T01:18:51.094Z,23.95
2022-11-24T01:21:53.571Z,23.50
2022-11-24T01:24:55.721Z,22.40
2022-11-24T01:27:58.010Z,25.00
2022-11-24T01:31:01.676Z,23.40
2022-11-24T01:34:04.286Z,25.20
2022-11-24T01:37:06.606Z,22.58
2022-11-24T01:40:09.909Z,23.05
2022-11-24T01:43:21.075Z,23.15
2022-11-24T01:46:30.838Z,27.57
2022-11-24T01:49:41.509Z,23.55
2022-11-24T01:52:49.918Z,23.30
2022-11-24T01:55:53.712Z,24.27
2022-11-24T01:58:59.351Z,24.95
2022-11-24T02:02:02.518Z,24.80
2022-11-24T02:05:09.495Z,24.17
2022-11-24T02:08:31.186Z,25.00
2022-11-24T02:11:39.889Z,23.55
2022-11-24T02:14:43.834Z,24.50
2022-11-24T02:17:46.105Z,21.87
2022-11-24T02:20:48.770Z,24.02
2022-11-24T02:24:09.608Z,25.42
2022-11-24T02:27:12.202Z,25.20
2022-11-24T02:30:14.639Z,25.62
2022-11-24T02:33:17.570Z,25.03
2022-11-24T02:36:19.762Z,24.65
2022-11-24T02:39:22.325Z,24.30
2022-11-24T02:42:27.161Z,29.40
2022-11-24T02:45:31.633Z,26.92
2022-11-24T02:48:33.982Z,26.23
2022-11-24T02:51:36.213Z,29.87
2022-11-24T02:54:38.578Z,28.75
2022-11-24T02:57:40.781Z,27.58
2022-11-24T03:00:43.170Z,28.65
2022-11-24T03:03:45.659Z,28.90
2022-11-24T03:06:47.895Z,26.90
2022-11-24T03:09:50.971Z,27.05
2022-11-24T03:12:53.236Z,25.95
2022-11-24T03:15:55.555Z,29.55
2022-11-24T03:18:57.797Z,30.43
2022-11-24T03:22:00.445Z,29.83
2022-11-24T03:25:02.673Z,30.95
2022-11-24T03:28:05.023Z,30.80
2022-11-24T03:31:08.652Z,30.27
2022-11-24T03:34:11.133Z,28.43
2022-11-24T03:37:13.498Z,32.58
2022-11-24T03:40:18.206Z,27.75
2022-11-24T03:43:20.609Z,30.12
2022-11-24T03:46:23.083Z,29.08
2022-11-24T03:49:25.365Z,26.77
2022-11-24T03:52:27.693Z,30.90
2022-11-24T03:55:29.929Z,27.98
2022-11-24T03:58:32.201Z,29.48
2022-11-24T04:01:35.119Z,30.70
2022-11-24T04:04:37.362Z,30.33
2022-11-24T04:07:39.722Z,28.02
2022-11-24T04:10:42.392Z,30.52
2022-11-24T04:13:47.748Z,33.40
2022-11-24T04:16:49.955Z,28.87
2022-11-24T04:19:52.255Z,33.60
2022-11-24T04:22:54.482Z,30.02
2022-11-24T04:25:56.718Z,19.37
2022-11-24T04:28:58.999Z,26.05
2022-11-24T04:32:01.272Z,29.58
2022-11-24T04:35:04.345Z,26.27
2022-11-24T04:38:06.726Z,33.92
2022-11-24T04:41:09.431Z,37.30
2022-11-24T04:44:11.699Z,33.65
2022-11-24T04:47:20.699Z,29.27
2022-11-24T04:50:23.112Z,31.70
2022-11-24T04:53:25.331Z,34.38
2022-11-24T04:56:27.564Z,33.45
2022-11-24T04:59:29.795Z,17.35
2022-11-24T05:02:32.171Z,34.63
2022-11-24T05:05:34.401Z,33.00
2022-11-24T05:08:36.672Z,27.98
2022-11-24T05:11:39.107Z,36.17
2022-11-24T05:14:41.286Z,31.33
2022-11-24T05:17:43.568Z,36.72
2022-11-24T05:20:45.998Z,40.47
2022-11-24T05:23:48.744Z,36.00
2022-11-24T05:26:50.880Z,31.92
2022-11-24T05:29:53.337Z,32.60
2022-11-24T05:32:55.992Z,35.15
2022-11-24T05:36:02.397Z,32.87
2022-11-24T05:39:04.892Z,34.05
2022-11-24T05:42:26.870Z,36.05
2022-11-24T05:45:29.170Z,28.60
2022-11-24T05:48:31.381Z,44.33
2022-11-24T05:51:35.082Z,40.87
2022-11-24T05:54:37.340Z,43.20
2022-11-24T05:57:39.619Z,43.38
2022-11-24T06:00:41.841Z,45.42
2022-11-24T06:03:44.046Z,47.55
2022-11-24T06:06:47.243Z,42.37
2022-11-24T06:09:49.476Z,41.22
2022-11-24T06:12:51.892Z,47.92
2022-11-24T06:15:54.505Z,83.70
2022-11-24T06:18:56.940Z,75.45
2022-11-24T06:21:59.479Z,57.13
2022-11-24T06:25:01.643Z,66.20
2022-11-24T06:28:05.338Z,57.60
2022-11-24T06:31:07.740Z,45.42
2022-11-24T06:34:11.864Z,48.60
2022-11-24T06:37:14.161Z,39.23
2022-11-24T06:40:19.138Z,39.95
2022-11-24T06:43:21.378Z,40.35
2022-11-24T06:46:24.071Z,38.80
2022-11-24T06:49:26.357Z,40.38
2022-11-24T06:52:28.631Z,44.73
2022-11-24T06:55:30.816Z,36.00
2022-11-24T06:58:33.059Z,38.30
2022-11-24T07:01:35.424Z,36.58
2022-11-24T07:04:37.978Z,34.95
2022-11-24T07:07:47.409Z,33.10
2022-11-24T07:10:52.890Z,30.88
2022-11-24T07:13:59.616Z,30.17
2022-11-24T07:17:02.798Z,35.28
2022-11-24T07:20:09.217Z,35.20
2022-11-24T07:23:11.496Z,35.83
2022-11-24T07:26:13.741Z,33.97
2022-11-24T07:29:16.249Z,27.83
2022-11-24T07:32:18.672Z,34.85
2022-11-24T07:35:21.035Z,30.12
2022-11-24T07:38:23.376Z,31.77
2022-11-24T07:41:25.935Z,23.50
2022-11-24T07:44:28.195Z,29.77
2022-11-24T07:47:30.386Z,29.87
2022-11-24T07:50:32.774Z,33.75
2022-11-24T07:53:35.503Z,34.17
2022-11-24T07:56:37.761Z,37.05
2022-11-24T07:59:39.949Z,35.00
2022-11-24T08:02:42.165Z,33.22
2022-11-24T08:06:15.955Z,29.10
2022-11-24T08:09:06.837Z,32.10
2022-11-24T08:12:09.095Z,31.20
2022-11-24T08:15:11.685Z,33.63
2022-11-24T08:18:13.995Z,31.23
2022-11-24T08:21:16.135Z,28.05
2022-11-24T08:24:18.371Z,32.43
2022-11-24T08:27:20.727Z,27.85
2022-11-24T08:30:23.101Z,27.70
2022-11-24T08:33:25.358Z,26.60
2022-11-24T08:36:27.622Z,20.98
2022-11-24T08:39:29.926Z,21.20
2022-11-24T08:42:32.116Z,27.70
2022-11-24T08:45:38.258Z,27.30
2022-11-24T08:48:45.006Z,28.70
2022-11-24T08:51:48.795Z,24.25
2022-11-24T08:54:51.064Z,27.90
2022-11-24T08:57:53.341Z,25.73
2022-11-24T09:00:55.710Z,27.15
2022-11-24T09:03:58.539Z,27.17
2022-11-24T09:07:01.314Z,28.95
2022-11-24T09:10:03.702Z,25.23
2022-11-24T09:13:05.965Z,35.28
2022-11-24T09:16:14.408Z,30.42
2022-11-24T09:19:16.600Z,26.75
2022-11-24T09:22:19.446Z,30.92
2022-11-24T09:25:23.752Z,27.63
2022-11-24T09:28:25.997Z,31.52
2022-11-24T09:31:31.038Z,30.00
2022-11-24T09:34:33.499Z,34.85
2022-11-24T09:37:36.022Z,26.75
2022-11-24T09:40:38.258Z,26.83
2022-11-24T09:44:01.756Z,27.92
2022-11-24T09:48:02.634Z,28.70
2022-11-24T09:51:06.084Z,29.58
2022-11-24T09:54:19.851Z,30.42
2022-11-24T09:57:26.047Z,30.00
2022-11-24T10:00:30.331Z,27.40
2022-11-24T10:03:37.672Z,29.12
2022-11-24T10:06:48.366Z,30.25
2022-11-24T10:10:25.074Z,27.33
2022-11-24T10:14:17.474Z,29.73
2022-11-24T10:17:29.557Z,27.08
2022-11-24T10:20:45.892Z,25.30
2022-11-24T10:24:18.092Z,24.10
2022-11-24T10:27:32.899Z,27.13
2022-11-24T10:30:35.316Z,22.47
2022-11-24T10:33:38.244Z,21.52
2022-11-24T10:36:58.355Z,23.23
2022-11-24T10:40:56.014Z,18.92
2022-11-24T10:43:58.219Z,21.00
2022-11-24T10:47:00.667Z,20.83
2022-11-24T10:50:13.459Z,19.98
2022-11-24T10:53:28.293Z,16.08
2022-11-24T10:56:40.421Z,20.58
2022-11-24T10:59:42.802Z,19.67
2022-11-24T11:02:46.336Z,18.13
2022-11-24T11:05:52.962Z,17.15
2022-11-24T11:09:07.366Z,16.62
2022-11-24T11:12:42.034Z,18.10
2022-11-24T11:15:35.775Z,16.92
2022-11-24T11:18:38.487Z,13.90
2022-11-24T11:21:40.736Z,15.10
2022-11-24T11:24:46.098Z,13.55
2022-11-24T11:27:49.094Z,13.13
2022-11-24T11:31:20.560Z,14.63
2022-11-24T11:34:35.232Z,13.53
2022-11-24T11:37:37.608Z,13.57
2022-11-24T11:40:43.992Z,14.30
2022-11-24T11:43:50.540Z,12.65
2022-11-24T11:46:55.830Z,14.32
2022-11-24T11:49:58.330Z,13.77
2022-11-24T11:53:09.864Z,13.68
2022-11-24T11:56:27.442Z,13.45
2022-11-24T11:59:45.571Z,13.90
2022-11-24T12:03:19.689Z,12.45
2022-11-24T12:06:44.035Z,13.50
2022-11-24T12:09:58.532Z,11.18
2022-11-24T12:13:07.880Z,11.18
2022-11-24T12:16:22.165Z,11.48
2022-11-24T12:19:45.641Z,12.70
2022-11-24T12:23:17.067Z,11.83
2022-11-24T12:26:44.242Z,11.60
2022-11-24T12:30:04.665Z,11.35
2022-11-24T12:33:27.525Z,10.52
2022-11-24T12:36:40.503Z,9.13
2022-11-24T12:40:16.906Z,9.40
2022-11-24T12:43:36.010Z,10.32
2022-11-24T12:46:53.210Z,9.88
2022-11-24T12:50:15.693Z,10.43
2022-11-24T12:53:28.810Z,10.57
2022-11-24T12:57:00.034Z,10.57
2022-11-24T13:00:16.364Z,11.80
2022-11-24T13:03:28.264Z,21.20
2022-11-24T13:06:43.093Z,21.17
2022-11-24T13:10:53.564Z,19.60
2022-11-24T13:14:04.964Z,22.73
2022-11-24T13:17:52.447Z,17.00
2022-11-24T13:20:57.004Z,12.82
2022-11-24T13:24:05.031Z,11.12
2022-11-24T13:27:16.488Z,12.88
2022-11-24T13:30:33.871Z,13.13
2022-11-24T13:33:37.156Z,13.80
2022-11-24T13:36:53.902Z,11.88
2022-11-24T13:40:01.191Z,14.75
2022-11-24T13:43:03.389Z,14.05
2022-11-24T13:46:09.934Z,14.57
2022-11-24T13:49:14.784Z,13.65
2022-11-24T13:52:35.685Z,10.50
2022-11-24T13:55:40.373Z,14.50
2022-11-24T13:58:48.922Z,10.30
2022-11-24T14:01:58.956Z,13.63
2022-11-24T14:05:01.304Z,12.95
2022-11-24T14:08:06.107Z,19.45
2022-11-24T14:11:17.294Z,17.87
2022-11-24T14:14:21.330Z,16.98
2022-11-24T14:17:25.304Z,19.03
2022-11-24T14:20:28.650Z,20.85
2022-11-24T14:23:31.745Z,21.50
2022-11-24T14:26:39.677Z,18.50
2022-11-24T14:30:14.894Z,17.87
2022-11-24T14:33:20.095Z,16.87
2022-11-24T14:36:22.312Z,15.85
2022-11-24T14:39:26.927Z,15.55
2022-11-24T14:42:29.693Z,12.85
2022-11-24T14:45:33.717Z,13.88
2022-11-24T14:48:47.045Z,15.80
2022-11-24T14:52:09.957Z,15.50
2022-11-24T14:55:28.331Z,16.67
2022-11-24T14:58:40.503Z,16.08
2022-11-24T15:01:44.460Z,16.27
2022-11-24T15:05:05.358Z,16.77
2022-11-24T15:08:14.705Z,15.88
2022-11-24T15:11:17.276Z,12.63
2022-11-24T15:14:34.693Z,15.48
2022-11-24T15:17:37.151Z,16.20
2022-11-24T15:20:44.625Z,14.73
2022-11-24T15:24:16.279Z,14.07
2022-11-24T15:27:18.429Z,17.35
2022-11-24T15:30:21.435Z,16.15
2022-11-24T15:33:23.893Z,18.67
2022-11-24T15:36:26.156Z,18.10
2022-11-24T15:39:28.476Z,19.27
2022-11-24T15:42:30.878Z,20.35
2022-11-24T15:45:34.768Z,16.58
2022-11-24T15:48:37.365Z,16.92
2022-11-24T15:51:43.799Z,18.20
2022-11-24T15:54:54.564Z,17.70
2022-11-24T15:57:56.772Z,19.45
2022-11-24T16:00:59.210Z,17.12
2022-11-24T16:04:02.288Z,23.83
2022-11-24T16:07:06.998Z,35.17
2022-11-24T16:10:26.270Z,43.90
2022-11-24T16:13:28.784Z,42.25
2022-11-24T16:16:31.055Z,86.80
2022-11-24T16:19:36.169Z,62.25
2022-11-24T16:22:42.712Z,32.90
2022-11-24T16:25:45.558Z,25.67
2022-11-24T16:28:48.204Z,27.58
2022-11-24T16:31:52.854Z,32.88
2022-11-24T16:34:57.486Z,32.38
2022-11-24T16:38:00.045Z,30.80
2022-11-24T16:41:10.614Z,33.50
2022-11-24T16:44:14.420Z,34.55
2022-11-24T16:47:17.042Z,35.83
2022-11-24T16:50:19.182Z,32.50
2022-11-24T16:53:21.929Z,29.23
2022-11-24T16:56:24.324Z,29.37
2022-11-24T16:59:26.579Z,32.05
2022-11-24T17:02:29.797Z,31.33
2022-11-24T17:05:33.220Z,34.67
2022-11-24T17:08:37.174Z,35.70
2022-11-24T17:11:41.261Z,35.22
2022-11-24T17:14:58.066Z,35.75
2022-11-24T17:18:24.064Z,38.40
2022-11-24T17:21:28.522Z,39.63
2022-11-24T17:24:32.247Z,36.27
2022-11-24T17:27:37.541Z,37.92
2022-11-24T17:30:41.944Z,37.90
2022-11-24T17:33:45.748Z,40.00
2022-11-24T17:36:49.430Z,38.47
2022-11-24T17:40:20.248Z,39.30
2022-11-24T17:43:17.117Z,42.35
2022-11-24T17:46:21.145Z,42.55
2022-11-24T17:49:25.439Z,45.12
2022-11-24T17:52:31.060Z,54.47
2022-11-24T17:55:34.964Z,44.50
2022-11-24T17:58:42.879Z,46.37
2022-11-24T18:01:47.896Z,54.38
2022-11-24T18:04:50.953Z,49.92
2022-11-24T18:07:55.755Z,46.55
2022-11-24T18:11:05.489Z,50.13
2022-11-24T18:14:11.544Z,55.22
2022-11-24T18:17:16.066Z,48.67
2022-11-24T18:20:20.556Z,52.53
2022-11-24T18:23:24.447Z,49.72
2022-11-24T18:26:29.420Z,50.70
2022-11-24T18:29:33.748Z,48.95
2022-11-24T18:32:38.162Z,50.65
2022-11-24T18:35:42.481Z,85.95
2022-11-24T18:38:47.060Z,69.68
2022-11-24T18:41:51.221Z,70.20
2022-11-24T18:44:59.183Z,62.28
2022-11-24T18:48:02.750Z,68.70
2022-11-24T18:51:07.326Z,70.37
2022-11-24T18:54:14.103Z,81.50
2022-11-24T18:57:18.091Z,72.73
2022-11-24T19:00:22.723Z,75.78
2022-11-24T19:03:26.450Z,67.28
2022-11-24T19:06:38.019Z,82.18
2022-11-24T19:09:40.743Z,81.90
2022-11-24T19:12:45.021Z,80.07
2022-11-24T19:15:49.162Z,81.07
2022-11-24T19:18:54.646Z,72.60
2022-11-24T19:21:57.526Z,78.00
2022-11-24T19:25:00.997Z,74.25
2022-11-24T19:28:04.193Z,65.40
2022-11-24T19:31:09.931Z,64.75
2022-11-24T19:34:12.843Z,58.85
2022-11-24T19:37:15.667Z,58.17
2022-11-24T19:40:19.238Z,50.08
2022-11-24T19:43:22.027Z,50.27
2022-11-24T19:46:28.041Z,49.28
2022-11-24T19:49:30.810Z,46.80
2022-11-24T19:52:35.772Z,37.17
2022-11-24T19:55:38.706Z,49.97
2022-11-24T19:58:41.629Z,51.40
2022-11-24T20:01:45.435Z,47.62
2022-11-24T20:04:47.874Z,41.08
2022-11-24T20:07:50.580Z,37.45
2022-11-24T20:10:53.384Z,38.40
2022-11-24T20:13:57.351Z,37.40
2022-11-24T20:17:00.810Z,37.75
2022-11-24T20:20:03.862Z,37.35
2022-11-24T20:23:06.789Z,37.92
2022-11-24T20:26:20.246Z,36.70
2022-11-24T20:29:23.884Z,23.83
2022-11-24T20:32:26.614Z,35.08
2022-11-24T20:35:29.332Z,34.80
2022-11-24T20:38:32.124Z,36.50
2022-11-24T20:41:36.670Z,46.97
2022-11-24T20:44:39.651Z,48.93
2022-11-24T20:47:41.999Z,51.65
2022-11-24T20:50:49.764Z,61.17
2022-11-24T20:53:57.051Z,55.55
2022-11-24T20:57:02.123Z,61.22
2022-11-24T21:00:05.799Z,46.00
2022-11-24T21:03:08.754Z,57.20
2022-11-24T21:06:12.917Z,48.20
2022-11-24T21:09:15.991Z,46.67
2022-11-24T21:12:18.362Z,48.13
2022-11-24T21:15:21.597Z,53.07
2022-11-24T21:18:25.146Z,44.67
2022-11-24T21:21:34.721Z,46.10
2022-11-24T21:24:37.461Z,45.20
2022-11-24T21:27:40.067Z,49.78
2022-11-24T21:30:42.711Z,45.10
2022-11-24T21:33:47.165Z,46.88
2022-11-24T21:36:49.424Z,39.20
2022-11-24T21:39:51.602Z,35.47
2022-11-24T21:42:53.808Z,36.22
2022-11-24T21:46:04.170Z,43.20
2022-11-24T21:49:06.647Z,37.25
2022-11-24T21:52:08.865Z,37.10
2022-11-24T21:55:11.263Z,35.70
2022-11-24T21:58:14.124Z,35.17
2022-11-24T22:01:18.738Z,35.33
2022-11-24T22:04:21.235Z,33.80
2022-11-24T22:07:23.403Z,36.22
2022-11-24T22:10:26.698Z,35.67
2022-11-24T22:13:28.965Z,34.70
2022-11-24T22:16:31.241Z,37.60
2022-11-24T22:19:33.554Z,35.50
2022-11-24T22:22:35.894Z,33.00
2022-11-24T22:25:38.121Z,35.63
2022-11-24T22:28:41.356Z,32.97
2022-11-24T22:31:43.611Z,34.63
2022-11-24T22:34:45.902Z,35.42
2022-11-24T22:37:48.181Z,31.33
2022-11-24T22:40:50.507Z,37.55
2022-11-24T22:43:53.748Z,33.70
2022-11-24T22:46:55.973Z,36.37
2022-11-24T22:49:59.435Z,40.42
2022-11-24T22:53:01.766Z,38.40
2022-11-24T22:56:06.482Z,39.42
2022-11-24T22:59:08.816Z,33.55
2022-11-24T23:02:10.941Z,41.00
2022-11-24T23:05:16.743Z,36.80
2022-11-24T23:08:21.553Z,33.03
2022-11-24T23:11:37.676Z,39.35
2022-11-24T23:14:40.432Z,37.92
2022-11-24T23:17:42.772Z,37.67
2022-11-24T23:20:44.977Z,38.40
2022-11-24T23:23:48.673Z,39.30
2022-11-24T23:26:50.896Z,37.47
2022-11-24T23:29:53.616Z,38.13
2022-11-24T23:32:56.146Z,41.93
2022-11-24T23:36:03.431Z,37.25
2022-11-24T23:39:08.827Z,39.28
2022-11-24T23:42:11.082Z,41.03
2022-11-24T23:45:13.369Z,35.50
2022-11-24T23:48:15.633Z,37.67
2022-11-24T23:51:20.323Z,40.60
2022-11-24T23:57:41.965Z,39.60
